sensor_id;sensor_type;location;lat;lon;timestamp;P1;durP1;ratioP1;P2;durP2;ratioP2
33501;SDS011;22396;51.070;4.974;2023-07-09T12:41:43;13.32;;;6.85;;
33501;SDS011;22396;51.070;4.974;2023-07-09T12:44:19;15.95;;;6.97;;
33501;SDS011;22396;51.070;4.974;2023-07-09T12:46:45;14.80;;;7.43;;
33501;SDS011;22396;51.070;4.974;2023-07-09T12:49:24;15.43;;;7.60;;
33501;SDS011;22396;51.070;4.974;2023-07-09T12:51:58;18.40;;;8.13;;
33501;SDS011;22396;51.070;4.974;2023-07-09T12:54:27;13.38;;;7.65;;
33501;SDS011;22396;51.070;4.974;2023-07-09T12:56:53;23.38;;;9.57;;
33501;SDS011;22396;51.070;4.974;2023-07-09T12:59:23;17.63;;;9.85;;
33501;SDS011;22396;51.070;4.974;2023-07-09T13:04:38;15.02;;;9.10;;
33501;SDS011;22396;51.070;4.974;2023-07-09T13:07:03;11.02;;;6.93;;
33501;SDS011;22396;51.070;4.974;2023-07-09T13:09:29;11.93;;;6.65;;
33501;SDS011;22396;51.070;4.974;2023-07-09T13:11:55;13.48;;;6.47;;
33501;SDS011;22396;51.070;4.974;2023-07-09T13:16:47;11.30;;;5.60;;
33501;SDS011;22396;51.070;4.974;2023-07-09T13:19:12;11.80;;;5.25;;
33501;SDS011;22396;51.070;4.974;2023-07-09T13:21:39;11.15;;;5.70;;
33501;SDS011;22396;51.070;4.974;2023-07-09T13:24:16;13.98;;;6.18;;
33501;SDS011;22396;51.070;4.974;2023-07-09T13:26:42;14.43;;;6.22;;
33501;SDS011;22396;51.070;4.974;2023-07-09T13:29:11;14.85;;;6.40;;
33501;SDS011;22396;51.070;4.974;2023-07-09T13:31:37;10.70;;;5.80;;
33501;SDS011;22396;51.070;4.974;2023-07-09T13:34:04;11.70;;;6.18;;
33501;SDS011;22396;51.070;4.974;2023-07-09T13:36:29;12.02;;;6.28;;
33501;SDS011;22396;51.070;4.974;2023-07-09T13:38:54;21.15;;;6.55;;
33501;SDS011;22396;51.070;4.974;2023-07-09T13:41:20;13.50;;;6.07;;
33501;SDS011;22396;51.070;4.974;2023-07-09T13:43:47;11.45;;;6.22;;
33501;SDS011;22396;51.070;4.974;2023-07-09T13:46:13;13.68;;;7.10;;
33501;SDS011;22396;51.070;4.974;2023-07-09T13:48:39;10.23;;;5.93;;
33501;SDS011;22396;51.070;4.974;2023-07-09T13:51:16;13.63;;;7.05;;
33501;SDS011;22396;51.070;4.974;2023-07-09T13:53:42;16.85;;;6.15;;
33501;SDS011;22396;51.070;4.974;2023-07-09T13:56:07;13.68;;;7.32;;
33501;SDS011;22396;51.070;4.974;2023-07-09T13:58:32;18.27;;;8.48;;
33501;SDS011;22396;51.070;4.974;2023-07-09T14:00:58;14.27;;;7.30;;
33501;SDS011;22396;51.070;4.974;2023-07-09T14:03:29;16.65;;;8.30;;
33501;SDS011;22396;51.070;4.974;2023-07-09T14:05:55;16.35;;;8.68;;
33501;SDS011;22396;51.070;4.974;2023-07-09T14:08:20;27.77;;;10.45;;
33501;SDS011;22396;51.070;4.974;2023-07-09T14:10:46;14.20;;;7.28;;
33501;SDS011;22396;51.070;4.974;2023-07-09T14:13:12;16.20;;;9.18;;
33501;SDS011;22396;51.070;4.974;2023-07-09T14:15:39;15.85;;;8.88;;
33501;SDS011;22396;51.070;4.974;2023-07-09T14:18:04;18.38;;;8.73;;
33501;SDS011;22396;51.070;4.974;2023-07-09T14:20:30;15.13;;;7.97;;
33501;SDS011;22396;51.070;4.974;2023-07-09T14:22:57;14.80;;;7.25;;
33501;SDS011;22396;51.070;4.974;2023-07-09T14:25:24;12.60;;;7.78;;
33501;SDS011;22396;51.070;4.974;2023-07-09T14:27:50;11.30;;;5.47;;
33501;SDS011;22396;51.070;4.974;2023-07-09T14:30:16;18.08;;;7.95;;
33501;SDS011;22396;51.070;4.974;2023-07-09T14:32:42;15.57;;;8.48;;
33501;SDS011;22396;51.070;4.974;2023-07-09T14:35:19;12.88;;;6.53;;
33501;SDS011;22396;51.070;4.974;2023-07-09T14:37:46;18.02;;;8.18;;
33501;SDS011;22396;51.070;4.974;2023-07-09T14:40:11;11.85;;;6.35;;
33501;SDS011;22396;51.070;4.974;2023-07-09T14:42:38;21.80;;;10.52;;
33501;SDS011;22396;51.070;4.974;2023-07-09T14:45:05;22.60;;;8.85;;
33501;SDS011;22396;51.070;4.974;2023-07-09T14:47:30;15.65;;;8.20;;
33501;SDS011;22396;51.070;4.974;2023-07-09T14:49:56;14.50;;;8.10;;
33501;SDS011;22396;51.070;4.974;2023-07-09T14:52:21;19.02;;;8.27;;
33501;SDS011;22396;51.070;4.974;2023-07-09T14:54:47;14.23;;;6.97;;
33501;SDS011;22396;51.070;4.974;2023-07-09T15:00:02;10.70;;;5.65;;
33501;SDS011;22396;51.070;4.974;2023-07-09T15:04:53;10.13;;;5.07;;
33501;SDS011;22396;51.070;4.974;2023-07-09T15:07:19;7.07;;;3.83;;
33501;SDS011;22396;51.070;4.974;2023-07-09T15:09:44;8.30;;;4.60;;
33501;SDS011;22396;51.070;4.974;2023-07-09T15:12:19;8.20;;;4.45;;
33501;SDS011;22396;51.070;4.974;2023-07-09T15:14:47;9.70;;;4.85;;
33501;SDS011;22396;51.070;4.974;2023-07-09T15:17:13;10.15;;;6.10;;
33501;SDS011;22396;51.070;4.974;2023-07-09T15:19:38;7.85;;;4.78;;
33501;SDS011;22396;51.070;4.974;2023-07-09T15:22:04;7.95;;;4.20;;
33501;SDS011;22396;51.070;4.974;2023-07-09T15:24:32;10.40;;;5.28;;
33501;SDS011;22396;51.070;4.974;2023-07-09T15:26:58;8.27;;;4.78;;
33501;SDS011;22396;51.070;4.974;2023-07-09T15:29:25;8.93;;;4.82;;
33501;SDS011;22396;51.070;4.974;2023-07-09T15:31:50;7.80;;;4.40;;
33501;SDS011;22396;51.070;4.974;2023-07-09T15:34:16;10.18;;;4.63;;
33501;SDS011;22396;51.070;4.974;2023-07-09T15:36:49;8.05;;;5.25;;
33501;SDS011;22396;51.070;4.974;2023-07-09T15:39:15;5.70;;;3.80;;
33501;SDS011;22396;51.070;4.974;2023-07-09T15:41:40;11.40;;;4.05;;
33501;SDS011;22396;51.070;4.974;2023-07-09T15:44:10;6.90;;;3.72;;
33501;SDS011;22396;51.070;4.974;2023-07-09T15:46:42;8.93;;;3.85;;
33501;SDS011;22396;51.070;4.974;2023-07-09T15:49:11;5.53;;;3.53;;
33501;SDS011;22396;51.070;4.974;2023-07-09T15:51:36;10.32;;;4.80;;
33501;SDS011;22396;51.070;4.974;2023-07-09T15:54:04;9.18;;;4.70;;
33501;SDS011;22396;51.070;4.974;2023-07-09T15:56:32;6.78;;;3.65;;
33501;SDS011;22396;51.070;4.974;2023-07-09T15:58:59;7.93;;;4.07;;
33501;SDS011;22396;51.070;4.974;2023-07-09T16:01:24;8.90;;;3.85;;
33501;SDS011;22396;51.070;4.974;2023-07-09T16:03:57;5.65;;;3.80;;
33501;SDS011;22396;51.070;4.974;2023-07-09T16:06:23;7.70;;;4.20;;
33501;SDS011;22396;51.070;4.974;2023-07-09T16:08:48;6.65;;;4.10;;
33501;SDS011;22396;51.070;4.974;2023-07-09T16:11:16;6.15;;;3.63;;
33501;SDS011;22396;51.070;4.974;2023-07-09T16:13:41;8.30;;;4.00;;
33501;SDS011;22396;51.070;4.974;2023-07-09T16:16:08;8.30;;;3.97;;
33501;SDS011;22396;51.070;4.974;2023-07-09T16:18:37;8.57;;;4.50;;
33501;SDS011;22396;51.070;4.974;2023-07-09T16:21:02;5.88;;;3.05;;
33501;SDS011;22396;51.070;4.974;2023-07-09T16:23:27;7.40;;;3.92;;
33501;SDS011;22396;51.070;4.974;2023-07-09T16:25:53;12.43;;;5.10;;
33501;SDS011;22396;51.070;4.974;2023-07-09T16:28:19;6.28;;;3.95;;
33501;SDS011;22396;51.070;4.974;2023-07-09T16:30:47;8.27;;;3.60;;
33501;SDS011;22396;51.070;4.974;2023-07-09T16:33:13;13.45;;;5.85;;
33501;SDS011;22396;51.070;4.974;2023-07-09T16:35:38;5.90;;;4.22;;
33501;SDS011;22396;51.070;4.974;2023-07-09T16:38:04;13.07;;;6.38;;
33501;SDS011;22396;51.070;4.974;2023-07-09T16:40:32;7.70;;;4.60;;
33501;SDS011;22396;51.070;4.974;2023-07-09T16:42:58;11.63;;;6.13;;
33501;SDS011;22396;51.070;4.974;2023-07-09T16:45:27;10.27;;;5.25;;
33501;SDS011;22396;51.070;4.974;2023-07-09T16:47:53;9.13;;;5.70;;
33501;SDS011;22396;51.070;4.974;2023-07-09T16:50:19;10.57;;;5.63;;
33501;SDS011;22396;51.070;4.974;2023-07-09T16:52:45;8.70;;;5.28;;
33501;SDS011;22396;51.070;4.974;2023-07-09T16:55:15;12.18;;;7.32;;
33501;SDS011;22396;51.070;4.974;2023-07-09T16:57:41;11.93;;;6.15;;
33501;SDS011;22396;51.070;4.974;2023-07-09T17:02:41;13.73;;;6.32;;
33501;SDS011;22396;51.070;4.974;2023-07-09T17:05:07;13.05;;;6.72;;
33501;SDS011;22396;51.070;4.974;2023-07-09T17:07:33;12.93;;;6.28;;
33501;SDS011;22396;51.070;4.974;2023-07-09T17:09:59;9.88;;;5.43;;
33501;SDS011;22396;51.070;4.974;2023-07-09T17:12:28;13.75;;;8.55;;
33501;SDS011;22396;51.070;4.974;2023-07-09T17:14:53;12.80;;;7.03;;
33501;SDS011;22396;51.070;4.974;2023-07-09T17:17:20;8.00;;;5.28;;
33501;SDS011;22396;51.070;4.974;2023-07-09T17:19:49;10.25;;;5.43;;
33501;SDS011;22396;51.070;4.974;2023-07-09T17:22:16;12.93;;;5.00;;
33501;SDS011;22396;51.070;4.974;2023-07-09T17:24:42;9.93;;;4.13;;
33501;SDS011;22396;51.070;4.974;2023-07-09T17:27:09;5.85;;;4.07;;
33501;SDS011;22396;51.070;4.974;2023-07-09T17:29:35;7.30;;;3.92;;
33501;SDS011;22396;51.070;4.974;2023-07-09T17:32:00;7.57;;;3.75;;
33501;SDS011;22396;51.070;4.974;2023-07-09T17:34:25;9.05;;;4.00;;
33501;SDS011;22396;51.070;4.974;2023-07-09T17:36:50;8.93;;;4.32;;
33501;SDS011;22396;51.070;4.974;2023-07-09T17:39:19;9.50;;;5.00;;
33501;SDS011;22396;51.070;4.974;2023-07-09T17:41:44;11.20;;;4.63;;
33501;SDS011;22396;51.070;4.974;2023-07-09T17:44:21;7.53;;;3.75;;
33501;SDS011;22396;51.070;4.974;2023-07-09T17:46:48;7.40;;;4.03;;
33501;SDS011;22396;51.070;4.974;2023-07-09T17:49:24;8.13;;;4.35;;
33501;SDS011;22396;51.070;4.974;2023-07-09T17:51:50;7.93;;;4.38;;
33501;SDS011;22396;51.070;4.974;2023-07-09T17:54:17;7.63;;;4.03;;
33501;SDS011;22396;51.070;4.974;2023-07-09T17:56:43;11.43;;;5.28;;
33501;SDS011;22396;51.070;4.974;2023-07-09T17:59:10;8.00;;;4.75;;
33501;SDS011;22396;51.070;4.974;2023-07-09T18:01:36;8.27;;;4.85;;
33501;SDS011;22396;51.070;4.974;2023-07-09T18:04:02;11.75;;;4.80;;
33501;SDS011;22396;51.070;4.974;2023-07-09T18:06:27;8.73;;;3.97;;
33501;SDS011;22396;51.070;4.974;2023-07-09T18:08:52;12.23;;;5.32;;
33501;SDS011;22396;51.070;4.974;2023-07-09T18:11:23;15.90;;;6.30;;
33501;SDS011;22396;51.070;4.974;2023-07-09T18:13:50;11.77;;;5.00;;
33501;SDS011;22396;51.070;4.974;2023-07-09T18:16:16;11.25;;;4.88;;
33501;SDS011;22396;51.070;4.974;2023-07-09T18:18:41;15.18;;;6.40;;
33501;SDS011;22396;51.070;4.974;2023-07-09T18:21:08;10.77;;;5.22;;
33501;SDS011;22396;51.070;4.974;2023-07-09T18:23:36;11.27;;;5.15;;
33501;SDS011;22396;51.070;4.974;2023-07-09T18:26:02;13.10;;;6.00;;
33501;SDS011;22396;51.070;4.974;2023-07-09T18:28:30;10.30;;;4.45;;
33501;SDS011;22396;51.070;4.974;2023-07-09T18:30:57;9.77;;;5.15;;
33501;SDS011;22396;51.070;4.974;2023-07-09T18:33:23;10.48;;;5.00;;
33501;SDS011;22396;51.070;4.974;2023-07-09T18:35:48;14.60;;;4.72;;
33501;SDS011;22396;51.070;4.974;2023-07-09T18:38:14;9.82;;;4.50;;
33501;SDS011;22396;51.070;4.974;2023-07-09T18:40:40;10.68;;;4.63;;
33501;SDS011;22396;51.070;4.974;2023-07-09T18:43:14;9.77;;;4.97;;
33501;SDS011;22396;51.070;4.974;2023-07-09T18:45:39;10.15;;;4.95;;
33501;SDS011;22396;51.070;4.974;2023-07-09T18:48:23;12.38;;;4.53;;
33501;SDS011;22396;51.070;4.974;2023-07-09T18:50:49;10.10;;;4.68;;
33501;SDS011;22396;51.070;4.974;2023-07-09T18:53:17;9.32;;;4.47;;
33501;SDS011;22396;51.070;4.974;2023-07-09T18:55:47;16.70;;;5.38;;
33501;SDS011;22396;51.070;4.974;2023-07-09T18:58:19;10.02;;;4.25;;
33501;SDS011;22396;51.070;4.974;2023-07-09T19:00:45;9.23;;;4.80;;
33501;SDS011;22396;51.070;4.974;2023-07-09T19:03:13;10.05;;;4.82;;
33501;SDS011;22396;51.070;4.974;2023-07-09T19:05:40;11.38;;;4.88;;
33501;SDS011;22396;51.070;4.974;2023-07-09T19:08:19;8.13;;;4.60;;
33501;SDS011;22396;51.070;4.974;2023-07-09T19:10:45;11.63;;;4.18;;
33501;SDS011;22396;51.070;4.974;2023-07-09T19:13:10;8.23;;;4.30;;
33501;SDS011;22396;51.070;4.974;2023-07-09T19:15:36;7.63;;;4.68;;
33501;SDS011;22396;51.070;4.974;2023-07-09T19:18:03;10.82;;;4.53;;
33501;SDS011;22396;51.070;4.974;2023-07-09T19:20:29;10.27;;;4.43;;
33501;SDS011;22396;51.070;4.974;2023-07-09T19:22:57;5.93;;;3.63;;
33501;SDS011;22396;51.070;4.974;2023-07-09T19:25:24;7.03;;;3.90;;
33501;SDS011;22396;51.070;4.974;2023-07-09T19:27:51;12.80;;;6.43;;
33501;SDS011;22396;51.070;4.974;2023-07-09T19:30:17;11.30;;;4.57;;
33501;SDS011;22396;51.070;4.974;2023-07-09T19:32:47;11.38;;;5.35;;
33501;SDS011;22396;51.070;4.974;2023-07-09T19:35:14;8.43;;;4.28;;
33501;SDS011;22396;51.070;4.974;2023-07-09T19:37:40;10.15;;;5.25;;
33501;SDS011;22396;51.070;4.974;2023-07-09T19:40:27;8.40;;;4.50;;
33501;SDS011;22396;51.070;4.974;2023-07-09T19:42:51;10.73;;;5.18;;
33501;SDS011;22396;51.070;4.974;2023-07-09T19:45:21;10.70;;;4.28;;
33501;SDS011;22396;51.070;4.974;2023-07-09T19:47:50;10.98;;;4.68;;
33501;SDS011;22396;51.070;4.974;2023-07-09T19:52:41;14.07;;;6.05;;
33501;SDS011;22396;51.070;4.974;2023-07-09T19:55:14;10.25;;;5.15;;
33501;SDS011;22396;51.070;4.974;2023-07-09T19:57:40;14.57;;;6.38;;
33501;SDS011;22396;51.070;4.974;2023-07-09T20:00:08;12.75;;;6.10;;
33501;SDS011;22396;51.070;4.974;2023-07-09T20:02:33;11.35;;;5.28;;
33501;SDS011;22396;51.070;4.974;2023-07-09T20:04:59;13.13;;;5.50;;
33501;SDS011;22396;51.070;4.974;2023-07-09T20:07:26;11.55;;;5.70;;
33501;SDS011;22396;51.070;4.974;2023-07-09T20:09:51;10.90;;;5.10;;
33501;SDS011;22396;51.070;4.974;2023-07-09T20:12:19;10.35;;;4.68;;
33501;SDS011;22396;51.070;4.974;2023-07-09T20:14:45;10.48;;;4.65;;
33501;SDS011;22396;51.070;4.974;2023-07-09T20:17:10;11.23;;;5.07;;
33501;SDS011;22396;51.070;4.974;2023-07-09T20:19:36;11.35;;;4.60;;
33501;SDS011;22396;51.070;4.974;2023-07-09T20:22:03;11.77;;;4.85;;
33501;SDS011;22396;51.070;4.974;2023-07-09T20:24:29;8.43;;;4.35;;
33501;SDS011;22396;51.070;4.974;2023-07-09T20:26:55;10.07;;;4.28;;
33501;SDS011;22396;51.070;4.974;2023-07-09T20:29:20;8.50;;;4.00;;
33501;SDS011;22396;51.070;4.974;2023-07-09T20:31:49;6.65;;;3.13;;
33501;SDS011;22396;51.070;4.974;2023-07-09T20:34:20;10.27;;;3.58;;
33501;SDS011;22396;51.070;4.974;2023-07-09T20:36:47;9.05;;;3.20;;
33501;SDS011;22396;51.070;4.974;2023-07-09T20:39:19;11.93;;;3.58;;
33501;SDS011;22396;51.070;4.974;2023-07-09T20:41:45;7.10;;;3.10;;
33501;SDS011;22396;51.070;4.974;2023-07-09T20:44:21;6.93;;;2.90;;
33501;SDS011;22396;51.070;4.974;2023-07-09T20:46:48;6.43;;;3.47;;
33501;SDS011;22396;51.070;4.974;2023-07-09T20:49:28;4.97;;;2.47;;
33501;SDS011;22396;51.070;4.974;2023-07-09T20:51:55;6.78;;;3.40;;
33501;SDS011;22396;51.070;4.974;2023-07-09T20:54:21;7.22;;;2.60;;
33501;SDS011;22396;51.070;4.974;2023-07-09T20:56:46;9.13;;;2.42;;
33501;SDS011;22396;51.070;4.974;2023-07-09T20:59:12;15.25;;;3.47;;
33501;SDS011;22396;51.070;4.974;2023-07-09T21:01:38;4.35;;;2.53;;
33501;SDS011;22396;51.070;4.974;2023-07-09T21:04:09;4.43;;;2.58;;
33501;SDS011;22396;51.070;4.974;2023-07-09T21:06:35;7.55;;;2.78;;
33501;SDS011;22396;51.070;4.974;2023-07-09T21:09:00;6.78;;;2.80;;
33501;SDS011;22396;51.070;4.974;2023-07-09T21:11:28;5.63;;;2.25;;
33501;SDS011;22396;51.070;4.974;2023-07-09T21:13:55;7.47;;;2.50;;
33501;SDS011;22396;51.070;4.974;2023-07-09T21:16:21;7.20;;;2.40;;
33501;SDS011;22396;51.070;4.974;2023-07-09T21:18:46;6.35;;;2.97;;
33501;SDS011;22396;51.070;4.974;2023-07-09T21:21:11;6.28;;;2.22;;
33501;SDS011;22396;51.070;4.974;2023-07-09T21:23:37;6.50;;;2.38;;
33501;SDS011;22396;51.070;4.974;2023-07-09T21:26:02;8.32;;;2.08;;
33501;SDS011;22396;51.070;4.974;2023-07-09T21:28:27;4.88;;;2.33;;
33501;SDS011;22396;51.070;4.974;2023-07-09T21:30:53;4.80;;;1.80;;
33501;SDS011;22396;51.070;4.974;2023-07-09T21:33:21;4.32;;;1.95;;
33501;SDS011;22396;51.070;4.974;2023-07-09T21:35:48;4.40;;;2.05;;
33501;SDS011;22396;51.070;4.974;2023-07-09T21:38:23;3.10;;;1.90;;
33501;SDS011;22396;51.070;4.974;2023-07-09T21:40:49;6.20;;;2.20;;
33501;SDS011;22396;51.070;4.974;2023-07-09T21:43:15;6.72;;;2.17;;
33501;SDS011;22396;51.070;4.974;2023-07-09T21:45:41;6.03;;;2.35;;
33501;SDS011;22396;51.070;4.974;2023-07-09T21:48:11;4.60;;;2.58;;
33501;SDS011;22396;51.070;4.974;2023-07-09T21:50:37;11.05;;;2.45;;
33501;SDS011;22396;51.070;4.974;2023-07-09T21:53:02;5.47;;;2.28;;
33501;SDS011;22396;51.070;4.974;2023-07-09T21:55:31;7.93;;;2.45;;
33501;SDS011;22396;51.070;4.974;2023-07-09T21:57:57;9.45;;;2.15;;
33501;SDS011;22396;51.070;4.974;2023-07-09T22:00:24;4.47;;;2.28;;
33501;SDS011;22396;51.070;4.974;2023-07-09T22:02:53;7.57;;;2.45;;
33501;SDS011;22396;51.070;4.974;2023-07-09T22:05:23;7.03;;;2.75;;
33501;SDS011;22396;51.070;4.974;2023-07-09T22:07:52;6.15;;;2.92;;
33501;SDS011;22396;51.070;4.974;2023-07-09T22:10:20;5.30;;;2.47;;
33501;SDS011;22396;51.070;4.974;2023-07-09T22:12:49;7.53;;;2.65;;
33501;SDS011;22396;51.070;4.974;2023-07-09T22:15:17;5.60;;;2.30;;
33501;SDS011;22396;51.070;4.974;2023-07-09T22:17:46;8.43;;;2.70;;
33501;SDS011;22396;51.070;4.974;2023-07-09T22:20:12;9.57;;;3.30;;
33501;SDS011;22396;51.070;4.974;2023-07-09T22:22:38;8.23;;;2.63;;
33501;SDS011;22396;51.070;4.974;2023-07-09T22:25:05;7.57;;;3.03;;
33501;SDS011;22396;51.070;4.974;2023-07-09T22:27:31;6.70;;;3.00;;
33501;SDS011;22396;51.070;4.974;2023-07-09T22:29:57;6.72;;;2.80;;
33501;SDS011;22396;51.070;4.974;2023-07-09T22:32:23;8.95;;;3.45;;
33501;SDS011;22396;51.070;4.974;2023-07-09T22:37:20;4.95;;;2.97;;
33501;SDS011;22396;51.070;4.974;2023-07-09T22:39:45;8.18;;;3.40;;
33501;SDS011;22396;51.070;4.974;2023-07-09T22:42:11;6.35;;;3.50;;
33501;SDS011;22396;51.070;4.974;2023-07-09T22:44:36;8.45;;;2.78;;
33501;SDS011;22396;51.070;4.974;2023-07-09T22:47:02;7.95;;;3.45;;
33501;SDS011;22396;51.070;4.974;2023-07-09T22:49:29;7.63;;;3.15;;
33501;SDS011;22396;51.070;4.974;2023-07-09T22:51:55;11.48;;;3.05;;
33501;SDS011;22396;51.070;4.974;2023-07-09T22:54:23;9.43;;;3.35;;
33501;SDS011;22396;51.070;4.974;2023-07-09T22:56:49;7.00;;;2.90;;
33501;SDS011;22396;51.070;4.974;2023-07-09T22:59:14;4.20;;;2.53;;
33501;SDS011;22396;51.070;4.974;2023-07-09T23:01:39;6.97;;;2.83;;
33501;SDS011;22396;51.070;4.974;2023-07-09T23:04:08;7.45;;;2.88;;
33501;SDS011;22396;51.070;4.974;2023-07-09T23:06:34;7.95;;;2.92;;
33501;SDS011;22396;51.070;4.974;2023-07-09T23:09:00;13.95;;;3.08;;
33501;SDS011;22396;51.070;4.974;2023-07-09T23:11:27;11.65;;;3.13;;
33501;SDS011;22396;51.070;4.974;2023-07-09T23:13:53;7.18;;;2.85;;
33501;SDS011;22396;51.070;4.974;2023-07-09T23:16:20;9.02;;;3.22;;
33501;SDS011;22396;51.070;4.974;2023-07-09T23:18:45;5.63;;;2.78;;
33501;SDS011;22396;51.070;4.974;2023-07-09T23:21:15;4.25;;;2.55;;
33501;SDS011;22396;51.070;4.974;2023-07-09T23:23:44;6.85;;;2.50;;
33501;SDS011;22396;51.070;4.974;2023-07-09T23:26:10;6.28;;;2.75;;
33501;SDS011;22396;51.070;4.974;2023-07-09T23:28:37;7.60;;;2.50;;
33501;SDS011;22396;51.070;4.974;2023-07-09T23:31:02;9.00;;;2.33;;
33501;SDS011;22396;51.070;4.974;2023-07-09T23:33:31;8.15;;;2.22;;
33501;SDS011;22396;51.070;4.974;2023-07-09T23:35:58;3.47;;;1.98;;
33501;SDS011;22396;51.070;4.974;2023-07-09T23:38:24;5.97;;;2.20;;
33501;SDS011;22396;51.070;4.974;2023-07-09T23:40:52;4.72;;;2.08;;
33501;SDS011;22396;51.070;4.974;2023-07-09T23:43:18;4.15;;;2.25;;
33501;SDS011;22396;51.070;4.974;2023-07-09T23:45:44;4.93;;;2.10;;
33501;SDS011;22396;51.070;4.974;2023-07-09T23:48:21;5.68;;;2.17;;
33501;SDS011;22396;51.070;4.974;2023-07-09T23:50:47;7.28;;;2.05;;
33501;SDS011;22396;51.070;4.974;2023-07-09T23:53:16;6.72;;;2.10;;
33501;SDS011;22396;51.070;4.974;2023-07-09T23:55:43;3.95;;;2.03;;
33501;SDS011;22396;51.070;4.974;2023-07-09T23:58:08;6.80;;;1.95;;
